sensor_id;sensor_type;location;lat;lon;timestamp;P1;durP1;ratioP1;P2;durP2;ratioP2
28629;SDS011;15817;42.130;24.762;2024-03-02T00:00:43;30.98;;;18.17;;
28629;SDS011;15817;42.130;24.762;2024-03-02T00:03:24;31.10;;;19.30;;
28629;SDS011;15817;42.130;24.762;2024-03-02T00:06:23;31.60;;;20.02;;
28629;SDS011;15817;42.130;24.762;2024-03-02T00:08:56;29.90;;;18.38;;
28629;SDS011;15817;42.130;24.762;2024-03-02T00:11:24;35.70;;;19.33;;
28629;SDS011;15817;42.130;24.762;2024-03-02T00:13:52;27.15;;;18.48;;
28629;SDS011;15817;42.130;24.762;2024-03-02T00:16:18;36.05;;;20.13;;
28629;SDS011;15817;42.130;24.762;2024-03-02T00:18:53;35.40;;;21.23;;
28629;SDS011;15817;42.130;24.762;2024-03-02T00:21:29;40.35;;;20.90;;
28629;SDS011;15817;42.130;24.762;2024-03-02T00:23:59;33.30;;;20.08;;
28629;SDS011;15817;42.130;24.762;2024-03-02T00:26:32;36.00;;;20.65;;
28629;SDS011;15817;42.130;24.762;2024-03-02T00:29:08;34.63;;;20.48;;
28629;SDS011;15817;42.130;24.762;2024-03-02T00:31:39;30.42;;;20.67;;
28629;SDS011;15817;42.130;24.762;2024-03-02T00:34:19;34.63;;;21.17;;
28629;SDS011;15817;42.130;24.762;2024-03-02T00:36:53;32.28;;;20.70;;
28629;SDS011;15817;42.130;24.762;2024-03-02T00:39:22;38.03;;;22.10;;
28629;SDS011;15817;42.130;24.762;2024-03-02T00:41:54;32.90;;;21.15;;
28629;SDS011;15817;42.130;24.762;2024-03-02T00:44:29;36.67;;;21.52;;
28629;SDS011;15817;42.130;24.762;2024-03-02T00:47:02;36.85;;;22.27;;
28629;SDS011;15817;42.130;24.762;2024-03-02T00:49:38;39.63;;;22.05;;
28629;SDS011;15817;42.130;24.762;2024-03-02T00:52:04;39.00;;;23.63;;
28629;SDS011;15817;42.130;24.762;2024-03-02T00:54:38;38.33;;;22.80;;
28629;SDS011;15817;42.130;24.762;2024-03-02T00:57:19;41.70;;;22.85;;
28629;SDS011;15817;42.130;24.762;2024-03-02T00:59:48;37.88;;;24.10;;
28629;SDS011;15817;42.130;24.762;2024-03-02T01:02:17;39.95;;;22.85;;
28629;SDS011;15817;42.130;24.762;2024-03-02T01:04:46;39.83;;;24.40;;
28629;SDS011;15817;42.130;24.762;2024-03-02T01:07:15;45.03;;;24.25;;
28629;SDS011;15817;42.130;24.762;2024-03-02T01:09:43;44.55;;;24.63;;
28629;SDS011;15817;42.130;24.762;2024-03-02T01:12:27;42.97;;;24.85;;
28629;SDS011;15817;42.130;24.762;2024-03-02T01:14:58;46.90;;;25.48;;
28629;SDS011;15817;42.130;24.762;2024-03-02T01:17:31;48.22;;;25.75;;
28629;SDS011;15817;42.130;24.762;2024-03-02T01:20:07;48.80;;;26.48;;
28629;SDS011;15817;42.130;24.762;2024-03-02T01:22:44;47.95;;;27.10;;
28629;SDS011;15817;42.130;24.762;2024-03-02T01:25:12;47.15;;;27.45;;
28629;SDS011;15817;42.130;24.762;2024-03-02T01:27:38;51.15;;;28.55;;
28629;SDS011;15817;42.130;24.762;2024-03-02T01:30:10;50.50;;;27.35;;
28629;SDS011;15817;42.130;24.762;2024-03-02T01:32:41;55.10;;;29.23;;
28629;SDS011;15817;42.130;24.762;2024-03-02T01:35:19;59.45;;;29.60;;
28629;SDS011;15817;42.130;24.762;2024-03-02T01:41:23;60.42;;;31.08;;
28629;SDS011;15817;42.130;24.762;2024-03-02T01:44:31;60.55;;;30.73;;
28629;SDS011;15817;42.130;24.762;2024-03-02T01:47:20;56.78;;;29.83;;
28629;SDS011;15817;42.130;24.762;2024-03-02T01:49:52;61.58;;;31.20;;
28629;SDS011;15817;42.130;24.762;2024-03-02T01:52:18;61.67;;;30.30;;
28629;SDS011;15817;42.130;24.762;2024-03-02T01:54:54;59.17;;;29.40;;
28629;SDS011;15817;42.130;24.762;2024-03-02T02:01:16;54.78;;;27.77;;
28629;SDS011;15817;42.130;24.762;2024-03-02T02:03:50;56.72;;;29.15;;
28629;SDS011;15817;42.130;24.762;2024-03-02T02:06:43;54.22;;;27.58;;
28629;SDS011;15817;42.130;24.762;2024-03-02T02:09:22;51.80;;;27.05;;
28629;SDS011;15817;42.130;24.762;2024-03-02T02:11:54;45.03;;;26.50;;
28629;SDS011;15817;42.130;24.762;2024-03-02T02:14:22;49.95;;;27.17;;
28629;SDS011;15817;42.130;24.762;2024-03-02T02:17:20;42.45;;;24.38;;
28629;SDS011;15817;42.130;24.762;2024-03-02T02:20:02;43.78;;;25.38;;
28629;SDS011;15817;42.130;24.762;2024-03-02T02:22:58;40.33;;;24.73;;
28629;SDS011;15817;42.130;24.762;2024-03-02T02:25:49;42.30;;;23.58;;
28629;SDS011;15817;42.130;24.762;2024-03-02T02:28:23;41.28;;;23.77;;
28629;SDS011;15817;42.130;24.762;2024-03-02T02:31:18;33.40;;;22.05;;
28629;SDS011;15817;42.130;24.762;2024-03-02T02:34:14;43.13;;;23.00;;
28629;SDS011;15817;42.130;24.762;2024-03-02T02:37:18;37.70;;;22.50;;
28629;SDS011;15817;42.130;24.762;2024-03-02T02:39:54;41.10;;;22.23;;
28629;SDS011;15817;42.130;24.762;2024-03-02T02:43:05;37.50;;;21.60;;
28629;SDS011;15817;42.130;24.762;2024-03-02T02:48:57;38.88;;;22.27;;
28629;SDS011;15817;42.130;24.762;2024-03-02T02:51:22;39.90;;;22.90;;
28629;SDS011;15817;42.130;24.762;2024-03-02T02:54:29;36.60;;;22.80;;
28629;SDS011;15817;42.130;24.762;2024-03-02T02:57:31;33.58;;;21.55;;
28629;SDS011;15817;42.130;24.762;2024-03-02T03:00:32;36.47;;;22.45;;
28629;SDS011;15817;42.130;24.762;2024-03-02T03:10:16;34.15;;;21.77;;
28629;SDS011;15817;42.130;24.762;2024-03-02T03:13:16;38.05;;;20.98;;
28629;SDS011;15817;42.130;24.762;2024-03-02T03:15:52;36.13;;;20.90;;
28629;SDS011;15817;42.130;24.762;2024-03-02T03:18:54;37.58;;;20.85;;
28629;SDS011;15817;42.130;24.762;2024-03-02T03:21:28;39.42;;;22.13;;
28629;SDS011;15817;42.130;24.762;2024-03-02T03:23:57;31.13;;;20.55;;
28629;SDS011;15817;42.130;24.762;2024-03-02T03:26:36;35.58;;;21.55;;
28629;SDS011;15817;42.130;24.762;2024-03-02T03:29:22;33.95;;;20.63;;
28629;SDS011;15817;42.130;24.762;2024-03-02T03:32:00;30.98;;;19.75;;
28629;SDS011;15817;42.130;24.762;2024-03-02T03:34:42;33.50;;;19.80;;
28629;SDS011;15817;42.130;24.762;2024-03-02T03:37:11;33.75;;;21.38;;
28629;SDS011;15817;42.130;24.762;2024-03-02T03:39:42;36.17;;;21.63;;
28629;SDS011;15817;42.130;24.762;2024-03-02T03:42:13;33.33;;;20.83;;
28629;SDS011;15817;42.130;24.762;2024-03-02T03:44:58;33.72;;;21.33;;
28629;SDS011;15817;42.130;24.762;2024-03-02T03:47:30;32.65;;;20.92;;
28629;SDS011;15817;42.130;24.762;2024-03-02T03:50:03;38.03;;;20.90;;
28629;SDS011;15817;42.130;24.762;2024-03-02T03:52:34;34.80;;;22.60;;
28629;SDS011;15817;42.130;24.762;2024-03-02T03:55:14;36.67;;;22.23;;
28629;SDS011;15817;42.130;24.762;2024-03-02T03:57:57;39.33;;;23.30;;
28629;SDS011;15817;42.130;24.762;2024-03-02T04:00:28;38.03;;;22.95;;
28629;SDS011;15817;42.130;24.762;2024-03-02T04:03:02;35.30;;;22.45;;
28629;SDS011;15817;42.130;24.762;2024-03-02T04:05:36;37.85;;;22.73;;
28629;SDS011;15817;42.130;24.762;2024-03-02T04:08:05;38.08;;;23.17;;
28629;SDS011;15817;42.130;24.762;2024-03-02T04:10:44;43.15;;;24.38;;
28629;SDS011;15817;42.130;24.762;2024-03-02T04:13:22;37.03;;;23.95;;
28629;SDS011;15817;42.130;24.762;2024-03-02T04:16:18;36.70;;;22.00;;
28629;SDS011;15817;42.130;24.762;2024-03-02T04:18:51;36.20;;;22.00;;
28629;SDS011;15817;42.130;24.762;2024-03-02T04:21:37;34.40;;;20.65;;
28629;SDS011;15817;42.130;24.762;2024-03-02T04:24:12;38.80;;;22.48;;
28629;SDS011;15817;42.130;24.762;2024-03-02T04:26:41;40.33;;;22.67;;
28629;SDS011;15817;42.130;24.762;2024-03-02T04:29:17;35.83;;;21.85;;
28629;SDS011;15817;42.130;24.762;2024-03-02T04:31:49;40.05;;;22.67;;
28629;SDS011;15817;42.130;24.762;2024-03-02T04:34:38;40.92;;;22.55;;
28629;SDS011;15817;42.130;24.762;2024-03-02T04:37:11;37.75;;;22.25;;
28629;SDS011;15817;42.130;24.762;2024-03-02T04:39:49;35.67;;;21.65;;
28629;SDS011;15817;42.130;24.762;2024-03-02T04:42:44;43.35;;;24.10;;
28629;SDS011;15817;42.130;24.762;2024-03-02T04:45:24;43.20;;;24.08;;
28629;SDS011;15817;42.130;24.762;2024-03-02T04:47:58;42.30;;;25.52;;
28629;SDS011;15817;42.130;24.762;2024-03-02T04:50:31;48.45;;;26.58;;
28629;SDS011;15817;42.130;24.762;2024-03-02T04:53:05;43.65;;;25.17;;
28629;SDS011;15817;42.130;24.762;2024-03-02T04:55:33;40.75;;;24.83;;
28629;SDS011;15817;42.130;24.762;2024-03-02T05:01:19;47.03;;;25.38;;
28629;SDS011;15817;42.130;24.762;2024-03-02T05:03:50;49.50;;;23.70;;
28629;SDS011;15817;42.130;24.762;2024-03-02T05:06:39;46.50;;;23.80;;
28629;SDS011;15817;42.130;24.762;2024-03-02T05:12:19;40.40;;;23.88;;
28629;SDS011;15817;42.130;24.762;2024-03-02T05:15:06;45.92;;;25.83;;
28629;SDS011;15817;42.130;24.762;2024-03-02T05:17:38;43.78;;;23.42;;
28629;SDS011;15817;42.130;24.762;2024-03-02T05:21:09;44.97;;;23.02;;
28629;SDS011;15817;42.130;24.762;2024-03-02T05:24:17;38.22;;;22.17;;
28629;SDS011;15817;42.130;24.762;2024-03-02T05:30:38;38.13;;;22.17;;
28629;SDS011;15817;42.130;24.762;2024-03-02T05:33:26;38.85;;;21.40;;
28629;SDS011;15817;42.130;24.762;2024-03-02T05:38:51;35.47;;;21.15;;
28629;SDS011;15817;42.130;24.762;2024-03-02T05:41:17;46.10;;;22.52;;
28629;SDS011;15817;42.130;24.762;2024-03-02T05:43:48;39.25;;;22.05;;
28629;SDS011;15817;42.130;24.762;2024-03-02T05:46:41;36.13;;;21.92;;
28629;SDS011;15817;42.130;24.762;2024-03-02T05:49:08;34.38;;;21.65;;
28629;SDS011;15817;42.130;24.762;2024-03-02T05:51:42;40.55;;;22.48;;
28629;SDS011;15817;42.130;24.762;2024-03-02T05:57:23;37.53;;;20.15;;
28629;SDS011;15817;42.130;24.762;2024-03-02T06:00:45;28.27;;;18.70;;
28629;SDS011;15817;42.130;24.762;2024-03-02T06:04:18;33.00;;;19.50;;
28629;SDS011;15817;42.130;24.762;2024-03-02T06:07:15;28.67;;;18.10;;
28629;SDS011;15817;42.130;24.762;2024-03-02T06:16:55;30.45;;;18.27;;
28629;SDS011;15817;42.130;24.762;2024-03-02T06:20:31;28.55;;;18.05;;
28629;SDS011;15817;42.130;24.762;2024-03-02T06:23:05;27.10;;;18.05;;
28629;SDS011;15817;42.130;24.762;2024-03-02T06:29:36;29.45;;;18.75;;
28629;SDS011;15817;42.130;24.762;2024-03-02T06:32:44;27.70;;;18.00;;
28629;SDS011;15817;42.130;24.762;2024-03-02T06:35:31;28.55;;;17.58;;
28629;SDS011;15817;42.130;24.762;2024-03-02T06:38:09;25.10;;;16.38;;
28629;SDS011;15817;42.130;24.762;2024-03-02T06:40:38;24.83;;;17.15;;
28629;SDS011;15817;42.130;24.762;2024-03-02T06:43:25;23.65;;;15.50;;
28629;SDS011;15817;42.130;24.762;2024-03-02T06:46:06;24.30;;;15.52;;
28629;SDS011;15817;42.130;24.762;2024-03-02T06:48:34;25.63;;;18.10;;
28629;SDS011;15817;42.130;24.762;2024-03-02T06:51:09;26.45;;;17.08;;
28629;SDS011;15817;42.130;24.762;2024-03-02T06:53:42;25.15;;;15.85;;
28629;SDS011;15817;42.130;24.762;2024-03-02T06:56:16;25.42;;;15.88;;
28629;SDS011;15817;42.130;24.762;2024-03-02T06:58:43;24.52;;;16.13;;
28629;SDS011;15817;42.130;24.762;2024-03-02T07:01:15;27.13;;;17.20;;
28629;SDS011;15817;42.130;24.762;2024-03-02T07:04:15;29.15;;;16.67;;
28629;SDS011;15817;42.130;24.762;2024-03-02T07:06:46;30.60;;;17.67;;
28629;SDS011;15817;42.130;24.762;2024-03-02T07:09:31;27.00;;;16.02;;
28629;SDS011;15817;42.130;24.762;2024-03-02T07:12:12;28.33;;;16.50;;
28629;SDS011;15817;42.130;24.762;2024-03-02T07:14:43;23.42;;;15.75;;
28629;SDS011;15817;42.130;24.762;2024-03-02T07:17:55;24.60;;;14.90;;
28629;SDS011;15817;42.130;24.762;2024-03-02T07:20:25;23.35;;;15.13;;
28629;SDS011;15817;42.130;24.762;2024-03-02T07:22:59;24.38;;;15.52;;
28629;SDS011;15817;42.130;24.762;2024-03-02T07:25:42;25.70;;;16.65;;
28629;SDS011;15817;42.130;24.762;2024-03-02T07:28:12;25.02;;;15.95;;
28629;SDS011;15817;42.130;24.762;2024-03-02T07:33:48;24.95;;;15.65;;
28629;SDS011;15817;42.130;24.762;2024-03-02T07:43:50;27.75;;;18.48;;
28629;SDS011;15817;42.130;24.762;2024-03-02T07:47:13;27.00;;;18.00;;
28629;SDS011;15817;42.130;24.762;2024-03-02T07:57:29;27.15;;;16.88;;
28629;SDS011;15817;42.130;24.762;2024-03-02T08:03:15;25.95;;;16.10;;
28629;SDS011;15817;42.130;24.762;2024-03-02T08:06:04;22.80;;;16.17;;
28629;SDS011;15817;42.130;24.762;2024-03-02T08:08:45;25.55;;;16.00;;
28629;SDS011;15817;42.130;24.762;2024-03-02T08:19:11;19.75;;;14.07;;
28629;SDS011;15817;42.130;24.762;2024-03-02T08:22:22;21.45;;;13.63;;
28629;SDS011;15817;42.130;24.762;2024-03-02T08:25:44;18.30;;;13.82;;
28629;SDS011;15817;42.130;24.762;2024-03-02T08:29:30;22.35;;;14.68;;
28629;SDS011;15817;42.130;24.762;2024-03-02T08:32:28;21.92;;;14.10;;
28629;SDS011;15817;42.130;24.762;2024-03-02T08:35:23;23.05;;;14.98;;
28629;SDS011;15817;42.130;24.762;2024-03-02T08:41:26;21.10;;;14.70;;
28629;SDS011;15817;42.130;24.762;2024-03-02T08:44:05;17.77;;;12.75;;
28629;SDS011;15817;42.130;24.762;2024-03-02T08:46:36;21.30;;;15.15;;
28629;SDS011;15817;42.130;24.762;2024-03-02T08:49:32;19.42;;;13.57;;
28629;SDS011;15817;42.130;24.762;2024-03-02T08:55:44;22.67;;;14.43;;
28629;SDS011;15817;42.130;24.762;2024-03-02T08:58:54;22.58;;;14.93;;
28629;SDS011;15817;42.130;24.762;2024-03-02T09:01:56;24.40;;;15.00;;
28629;SDS011;15817;42.130;24.762;2024-03-02T09:04:36;20.30;;;13.93;;
28629;SDS011;15817;42.130;24.762;2024-03-02T09:07:22;24.35;;;15.07;;
28629;SDS011;15817;42.130;24.762;2024-03-02T09:10:08;27.50;;;15.32;;
28629;SDS011;15817;42.130;24.762;2024-03-02T09:13:48;28.77;;;16.15;;
28629;SDS011;15817;42.130;24.762;2024-03-02T09:20:03;26.17;;;14.85;;
28629;SDS011;15817;42.130;24.762;2024-03-02T09:23:28;26.40;;;15.63;;
28629;SDS011;15817;42.130;24.762;2024-03-02T09:27:17;29.13;;;16.08;;
28629;SDS011;15817;42.130;24.762;2024-03-02T09:31:19;29.35;;;18.30;;
28629;SDS011;15817;42.130;24.762;2024-03-02T09:34:43;24.95;;;16.98;;
28629;SDS011;15817;42.130;24.762;2024-03-02T09:42:23;30.42;;;17.80;;
28629;SDS011;15817;42.130;24.762;2024-03-02T10:14:33;30.58;;;18.00;;
28629;SDS011;15817;42.130;24.762;2024-03-02T10:25:34;32.47;;;18.83;;
28629;SDS011;15817;42.130;24.762;2024-03-02T10:32:46;30.70;;;19.42;;
28629;SDS011;15817;42.130;24.762;2024-03-02T11:00:56;33.78;;;21.45;;
28629;SDS011;15817;42.130;24.762;2024-03-02T11:03:30;41.20;;;23.70;;
28629;SDS011;15817;42.130;24.762;2024-03-02T11:06:27;35.80;;;23.73;;
28629;SDS011;15817;42.130;24.762;2024-03-02T11:09:26;42.28;;;24.85;;
28629;SDS011;15817;42.130;24.762;2024-03-02T11:15:11;31.50;;;22.73;;
28629;SDS011;15817;42.130;24.762;2024-03-02T11:19:03;37.53;;;23.45;;
28629;SDS011;15817;42.130;24.762;2024-03-02T11:25:50;32.47;;;22.40;;
28629;SDS011;15817;42.130;24.762;2024-03-02T11:29:02;40.38;;;23.35;;
28629;SDS011;15817;42.130;24.762;2024-03-02T11:36:43;35.53;;;24.48;;
28629;SDS011;15817;42.130;24.762;2024-03-02T11:39:16;32.20;;;23.60;;
28629;SDS011;15817;42.130;24.762;2024-03-02T11:45:15;40.42;;;25.60;;
28629;SDS011;15817;42.130;24.762;2024-03-02T11:52:09;28.20;;;21.10;;
28629;SDS011;15817;42.130;24.762;2024-03-02T11:59:18;22.20;;;17.35;;
28629;SDS011;15817;42.130;24.762;2024-03-02T12:13:36;21.52;;;15.98;;
28629;SDS011;15817;42.130;24.762;2024-03-02T12:20:08;24.05;;;16.25;;
28629;SDS011;15817;42.130;24.762;2024-03-02T12:22:43;21.23;;;15.77;;
28629;SDS011;15817;42.130;24.762;2024-03-02T12:25:54;22.25;;;16.65;;
28629;SDS011;15817;42.130;24.762;2024-03-02T12:28:50;22.27;;;16.02;;
28629;SDS011;15817;42.130;24.762;2024-03-02T12:31:39;20.48;;;15.88;;
28629;SDS011;15817;42.130;24.762;2024-03-02T12:34:12;22.02;;;16.92;;
28629;SDS011;15817;42.130;24.762;2024-03-02T12:37:06;22.45;;;16.52;;
28629;SDS011;15817;42.130;24.762;2024-03-02T12:39:44;22.52;;;16.50;;
28629;SDS011;15817;42.130;24.762;2024-03-02T12:42:24;21.17;;;16.77;;
28629;SDS011;15817;42.130;24.762;2024-03-02T12:45:11;21.52;;;17.45;;
28629;SDS011;15817;42.130;24.762;2024-03-02T12:59:25;21.63;;;16.83;;
28629;SDS011;15817;42.130;24.762;2024-03-02T13:02:17;21.60;;;17.33;;
28629;SDS011;15817;42.130;24.762;2024-03-02T13:05:07;24.35;;;17.73;;
28629;SDS011;15817;42.130;24.762;2024-03-02T13:08:23;22.88;;;18.55;;
28629;SDS011;15817;42.130;24.762;2024-03-02T13:11:08;20.77;;;16.77;;
28629;SDS011;15817;42.130;24.762;2024-03-02T13:14:22;20.33;;;16.67;;
28629;SDS011;15817;42.130;24.762;2024-03-02T13:21:03;19.75;;;17.38;;
28629;SDS011;15817;42.130;24.762;2024-03-02T13:24:05;22.25;;;17.48;;
28629;SDS011;15817;42.130;24.762;2024-03-02T13:27:18;19.92;;;17.60;;
28629;SDS011;15817;42.130;24.762;2024-03-02T13:34:26;19.30;;;17.25;;
28629;SDS011;15817;42.130;24.762;2024-03-02T14:01:10;22.98;;;18.98;;
28629;SDS011;15817;42.130;24.762;2024-03-02T14:11:48;20.38;;;16.10;;
28629;SDS011;15817;42.130;24.762;2024-03-02T14:22:49;17.95;;;15.38;;
28629;SDS011;15817;42.130;24.762;2024-03-02T14:46:09;24.55;;;14.23;;
28629;SDS011;15817;42.130;24.762;2024-03-02T14:48:58;17.38;;;14.52;;
28629;SDS011;15817;42.130;24.762;2024-03-02T14:55:12;18.80;;;13.80;;
28629;SDS011;15817;42.130;24.762;2024-03-02T14:58:18;17.13;;;13.50;;
28629;SDS011;15817;42.130;24.762;2024-03-02T15:01:23;18.13;;;13.48;;
28629;SDS011;15817;42.130;24.762;2024-03-02T15:05:02;15.55;;;11.70;;
28629;SDS011;15817;42.130;24.762;2024-03-02T15:08:10;17.90;;;11.52;;
28629;SDS011;15817;42.130;24.762;2024-03-02T15:11:43;14.88;;;11.02;;
28629;SDS011;15817;42.130;24.762;2024-03-02T15:14:45;16.17;;;11.57;;
28629;SDS011;15817;42.130;24.762;2024-03-02T15:39:42;15.32;;;11.30;;
28629;SDS011;15817;42.130;24.762;2024-03-02T15:55:31;18.35;;;14.38;;
28629;SDS011;15817;42.130;24.762;2024-03-02T16:07:11;15.40;;;11.90;;
28629;SDS011;15817;42.130;24.762;2024-03-02T16:09:38;15.10;;;11.25;;
28629;SDS011;15817;42.130;24.762;2024-03-02T16:12:06;14.50;;;12.18;;
28629;SDS011;15817;42.130;24.762;2024-03-02T16:14:47;15.63;;;12.32;;
28629;SDS011;15817;42.130;24.762;2024-03-02T16:17:46;13.45;;;12.00;;
28629;SDS011;15817;42.130;24.762;2024-03-02T16:28:02;15.68;;;10.90;;
28629;SDS011;15817;42.130;24.762;2024-03-02T16:35:01;12.43;;;9.02;;
28629;SDS011;15817;42.130;24.762;2024-03-02T16:48:56;18.35;;;12.38;;
28629;SDS011;15817;42.130;24.762;2024-03-02T18:34:08;48.80;;;33.70;;
28629;SDS011;15817;42.130;24.762;2024-03-02T18:37:05;49.05;;;34.55;;
28629;SDS011;15817;42.130;24.762;2024-03-02T18:39:59;47.78;;;31.90;;
28629;SDS011;15817;42.130;24.762;2024-03-02T18:42:44;45.63;;;32.38;;
28629;SDS011;15817;42.130;24.762;2024-03-02T18:45:28;45.92;;;31.80;;
28629;SDS011;15817;42.130;24.762;2024-03-02T18:48:29;46.28;;;32.63;;
28629;SDS011;15817;42.130;24.762;2024-03-02T18:52:01;41.88;;;30.60;;
28629;SDS011;15817;42.130;24.762;2024-03-02T18:55:16;44.45;;;30.50;;
28629;SDS011;15817;42.130;24.762;2024-03-02T18:58:27;42.53;;;31.27;;
28629;SDS011;15817;42.130;24.762;2024-03-02T19:04:54;37.90;;;28.15;;
28629;SDS011;15817;42.130;24.762;2024-03-02T19:07:58;38.55;;;27.40;;
28629;SDS011;15817;42.130;24.762;2024-03-02T19:11:03;41.28;;;29.15;;
28629;SDS011;15817;42.130;24.762;2024-03-02T19:13:42;39.90;;;29.15;;
28629;SDS011;15817;42.130;24.762;2024-03-02T19:16:15;40.92;;;28.92;;
28629;SDS011;15817;42.130;24.762;2024-03-02T19:19:01;46.60;;;32.95;;
28629;SDS011;15817;42.130;24.762;2024-03-02T19:21:46;52.25;;;34.35;;
28629;SDS011;15817;42.130;24.762;2024-03-02T19:24:49;48.28;;;32.05;;
28629;SDS011;15817;42.130;24.762;2024-03-02T19:27:28;44.03;;;31.48;;
28629;SDS011;15817;42.130;24.762;2024-03-02T19:30:17;45.63;;;30.90;;
28629;SDS011;15817;42.130;24.762;2024-03-02T19:32:49;40.08;;;29.13;;
28629;SDS011;15817;42.130;24.762;2024-03-02T19:35:43;38.92;;;27.50;;
28629;SDS011;15817;42.130;24.762;2024-03-02T19:38:40;36.17;;;25.65;;
28629;SDS011;15817;42.130;24.762;2024-03-02T19:41:31;39.28;;;27.58;;
28629;SDS011;15817;42.130;24.762;2024-03-02T19:44:44;33.47;;;25.33;;
28629;SDS011;15817;42.130;24.762;2024-03-02T19:47:51;34.83;;;25.75;;
28629;SDS011;15817;42.130;24.762;2024-03-02T20:01:23;32.75;;;25.98;;
28629;SDS011;15817;42.130;24.762;2024-03-02T20:08:20;33.92;;;25.92;;
28629;SDS011;15817;42.130;24.762;2024-03-02T20:11:32;33.05;;;26.15;;
28629;SDS011;15817;42.130;24.762;2024-03-02T20:14:50;35.80;;;27.23;;
28629;SDS011;15817;42.130;24.762;2024-03-02T21:57:32;32.90;;;24.95;;
28629;SDS011;15817;42.130;24.762;2024-03-02T22:03:25;31.58;;;24.75;;
28629;SDS011;15817;42.130;24.762;2024-03-02T22:06:04;37.13;;;27.13;;
28629;SDS011;15817;42.130;24.762;2024-03-02T22:09:12;38.65;;;27.60;;
28629;SDS011;15817;42.130;24.762;2024-03-02T22:11:47;36.55;;;26.30;;
28629;SDS011;15817;42.130;24.762;2024-03-02T22:14:19;34.95;;;25.70;;
28629;SDS011;15817;42.130;24.762;2024-03-02T22:16:56;32.25;;;24.17;;
28629;SDS011;15817;42.130;24.762;2024-03-02T22:19:24;31.45;;;24.15;;
28629;SDS011;15817;42.130;24.762;2024-03-02T22:21:58;33.08;;;23.55;;
28629;SDS011;15817;42.130;24.762;2024-03-02T22:24:43;30.23;;;24.15;;
28629;SDS011;15817;42.130;24.762;2024-03-02T22:27:23;29.05;;;23.27;;
28629;SDS011;15817;42.130;24.762;2024-03-02T22:30:14;32.33;;;24.00;;
28629;SDS011;15817;42.130;24.762;2024-03-02T22:33:08;34.22;;;24.67;;
28629;SDS011;15817;42.130;24.762;2024-03-02T22:35:37;32.05;;;24.50;;
28629;SDS011;15817;42.130;24.762;2024-03-02T22:38:18;32.03;;;25.38;;
28629;SDS011;15817;42.130;24.762;2024-03-02T22:41:13;33.35;;;25.70;;
28629;SDS011;15817;42.130;24.762;2024-03-02T22:44:14;34.65;;;25.55;;
28629;SDS011;15817;42.130;24.762;2024-03-02T22:46:51;35.63;;;27.08;;
28629;SDS011;15817;42.130;24.762;2024-03-02T23:00:44;39.35;;;28.60;;
28629;SDS011;15817;42.130;24.762;2024-03-02T23:04:07;40.45;;;30.35;;
28629;SDS011;15817;42.130;24.762;2024-03-02T23:07:04;44.97;;;31.30;;
28629;SDS011;15817;42.130;24.762;2024-03-02T23:10:10;46.45;;;32.17;;
28629;SDS011;15817;42.130;24.762;2024-03-02T23:13:28;45.20;;;31.17;;
28629;SDS011;15817;42.130;24.762;2024-03-02T23:16:59;42.88;;;30.55;;
28629;SDS011;15817;42.130;24.762;2024-03-02T23:19:52;46.35;;;30.33;;
28629;SDS011;15817;42.130;24.762;2024-03-02T23:23:32;44.25;;;30.58;;
28629;SDS011;15817;42.130;24.762;2024-03-02T23:26:47;46.13;;;31.10;;
28629;SDS011;15817;42.130;24.762;2024-03-02T23:30:20;54.65;;;34.75;;
28629;SDS011;15817;42.130;24.762;2024-03-02T23:46:20;46.17;;;29.08;;
28629;SDS011;15817;42.130;24.762;2024-03-02T23:49:02;53.05;;;31.15;;
28629;SDS011;15817;42.130;24.762;2024-03-02T23:51:51;49.08;;;31.38;;
28629;SDS011;15817;42.130;24.762;2024-03-02T23:55:01;54.95;;;31.88;;
28629;SDS011;15817;42.130;24.762;2024-03-02T23:57:46;53.80;;;32.40;;
